Carol M. Ott — WCY7224 — position and weather

sailwx.info

Track history (hours):
 
Tides and Currents Weather Stations Pressure Air Temp Water Temp Dewpoint Dewpoint Depression Visibility Wind Speed Wind Dir Waves Ship Positions

Carol M. Ott

Owner: BLESSEY MARINE SERVICES INC, HARAHAN, LA. More information available from US FCC via Universal Licensing System and Coast Guard Vessel Documentation Center.

Last reported at 2018-Feb-18 02:47 UTC. Time now 2018-Feb-18 04:55 UTC.
Position N 29°30' W 094°35'.

Length 23 m; draft 2.4 m.

Type: Towing. MMSI: 366934050.

Date/timePositionNaut miles runAvg speedWind from/ knotsBaromVisibWave heightAir tempDewpointWater temp
2018-Feb-18 02:47N 29°30' W 094°35'0 0.0
2018-Feb-18 02:30N 29°30' W 094°35'0 0.0
2018-Feb-18 01:48N 29°30' W 094°35'0 0.0
2018-Feb-18 01:30N 29°30' W 094°35'0 0.0
2018-Feb-18 01:00N 29°30' W 094°35'0 0.0
2018-Feb-18 00:29N 29°30' W 094°35'3 1.9
2018-Feb-17 22:42N 29°31' W 094°31'1 4.4
2018-Feb-17 22:28N 29°31' W 094°30'1 2.0
2018-Feb-17 21:46N 29°32' W 094°29'5 2.9
2018-Feb-17 20:06N 29°36' W 094°25'1 4.6
2018-Feb-17 19:59N 29°36' W 094°24'1 3.0
2018-Feb-17 19:30N 29°36' W 094°23'0 0.3
2018-Feb-17 18:55N 29°36' W 094°22'0 0.1
2018-Feb-17 18:24N 29°36' W 094°22'0 0.2
2018-Feb-17 17:55N 29°36' W 094°22'0 0.3
2018-Feb-17 17:30N 29°36' W 094°22'0 0.1
2018-Feb-17 17:00N 29°36' W 094°22'0 0.0
2018-Feb-17 16:30N 29°36' W 094°22'0 0.1
2018-Feb-17 16:00N 29°36' W 094°22'1 1.2
2018-Feb-17 15:29N 29°37' W 094°21'0 0.0
2018-Feb-17 15:00N 29°37' W 094°21'0 0.0
2018-Feb-17 14:30N 29°37' W 094°22'0 0.0
2018-Feb-17 13:59N 29°37' W 094°22'0 0.0
2018-Feb-17 13:30N 29°37' W 094°22'0 0.0
2018-Feb-17 13:00N 29°37' W 094°22'0 0.0
2018-Feb-17 12:30N 29°37' W 094°21'0 0.0
2018-Feb-17 11:58N 29°37' W 094°21'0 0.0
2018-Feb-17 11:30N 29°37' W 094°21'0 0.0
2018-Feb-17 11:00N 29°37' W 094°21'0 0.0
2018-Feb-17 10:30N 29°37' W 094°21'0 0.0
2018-Feb-17 10:00N 29°37' W 094°21'0 0.0
2018-Feb-17 09:30N 29°37' W 094°21'0 0.0
2018-Feb-17 08:59N 29°37' W 094°21'0 0.0
2018-Feb-17 08:29N 29°37' W 094°21'0 0.0
2018-Feb-17 08:00N 29°37' W 094°21'0 0.0
2018-Feb-17 07:24N 29°37' W 094°21'0 0.0
2018-Feb-17 06:59N 29°37' W 094°21'0 0.0
2018-Feb-17 06:30N 29°37' W 094°21'0 0.0
2018-Feb-17 06:00N 29°37' W 094°21'0 0.0
2018-Feb-17 05:31N 29°37' W 094°21'0 0.0
2018-Feb-17 04:58N 29°37' W 094°21'0 0.0
2018-Feb-17 04:30N 29°37' W 094°21'0 0.0
2018-Feb-17 03:46N 29°37' W 094°21'0 0.0
2018-Feb-17 03:22N 29°37' W 094°21'0 0.0
2018-Feb-17 03:00N 29°37' W 094°21'0 0.0
2018-Feb-17 02:30N 29°37' W 094°21'0 0.0
2018-Feb-17 02:00N 29°37' W 094°21'0 0.0
2018-Feb-17 01:30N 29°37' W 094°21'0 0.0
2018-Feb-17 01:00N 29°37' W 094°22'0 0.0
2018-Feb-17 00:30N 29°37' W 094°22'1 1.4
2018-Feb-16 23:59N 29°37' W 094°21'2 3.7
2018-Feb-16 23:30N 29°38' W 094°19'2 4.7
2018-Feb-16 23:00N 29°39' W 094°17'3 5.1
2018-Feb-16 22:30N 29°40' W 094°14'3 5.1
2018-Feb-16 22:00N 29°41' W 094°11'3 4.8
2018-Feb-16 21:29N 29°42' W 094°09'2 5.1
2018-Feb-16 21:00N 29°44' W 094°06'2 4.4
2018-Feb-16 20:30N 29°45' W 094°04'2 5.0
2018-Feb-16 20:00N 29°46' W 094°02'2 4.8
2018-Feb-16 19:30N 29°48' W 094°00'2 4.6
2018-Feb-16 19:00N 29°49' W 093°58'3 6.0
2018-Feb-16 18:30N 29°52' W 093°56'4 7.4
2018-Feb-16 18:00N 29°55' W 093°53'3 6.1
2018-Feb-16 17:30N 29°57' W 093°52'2 3.6
2018-Feb-16 17:00N 29°59' W 093°50'1 2.9
2018-Feb-16 16:30N 29°59' W 093°48'2 3.7
2018-Feb-16 16:00N 29°60' W 093°46'1 2.4
2018-Feb-16 15:30N 30°01' W 093°46'0 0.1
2018-Feb-16 15:00N 30°01' W 093°46'0 0.0
2018-Feb-16 14:30N 30°01' W 093°46'0 0.0
2018-Feb-16 13:59N 30°01' W 093°46'0 0.0
2018-Feb-16 13:29N 30°01' W 093°46'0 0.0
2018-Feb-16 13:00N 30°01' W 093°46'0 0.0
2018-Feb-16 12:30N 30°01' W 093°46'0 0.0
2018-Feb-16 12:00N 30°01' W 093°46'0 0.0
2018-Feb-16 11:28N 30°01' W 093°46'0 0.0
2018-Feb-16 11:00N 30°01' W 093°46'0 0.0
2018-Feb-16 10:30N 30°01' W 093°46'0 0.0
2018-Feb-16 10:00N 30°01' W 093°46'0 0.0
2018-Feb-16 09:30N 30°01' W 093°46'0 0.0
2018-Feb-16 09:00N 30°01' W 093°46'0 0.0
2018-Feb-16 08:30N 30°01' W 093°46'0 0.0
2018-Feb-16 08:00N 30°01' W 093°46'0 0.0
2018-Feb-16 07:30N 30°01' W 093°46'0 0.0
2018-Feb-16 07:00N 30°01' W 093°46'0 0.0
2018-Feb-16 06:30N 30°01' W 093°46'0 0.0
2018-Feb-16 06:00N 30°01' W 093°46'0 0.0
2018-Feb-16 05:30N 30°01' W 093°46'0 0.0
2018-Feb-16 05:00N 30°01' W 093°46'0 0.0
2018-Feb-16 04:30N 30°01' W 093°46'0 0.0
2018-Feb-16 04:00N 30°01' W 093°46'0 0.0
2018-Feb-16 03:30N 30°01' W 093°46'0 0.0
2018-Feb-16 03:00N 30°01' W 093°46'0 0.0
2018-Feb-16 02:30N 30°01' W 093°46'0 0.0
2018-Feb-16 02:00N 30°01' W 093°46'0 0.0
2018-Feb-16 01:30N 30°01' W 093°46'1 1.1
2018-Feb-16 01:00N 30°01' W 093°45'2 4.7
2018-Feb-16 00:30N 30°03' W 093°44'2 4.4
2018-Feb-16 00:00N 30°04' W 093°41'2 4.7
2018-Feb-15 23:30N 30°04' W 093°38'2 4.5
2018-Feb-15 22:59N 30°04' W 093°36'2 4.2
2018-Feb-15 22:30N 30°04' W 093°33'2 4.3
2018-Feb-15 21:59N 30°04' W 093°31'2 4.1
2018-Feb-15 21:30N 30°04' W 093°28'2 4.3
2018-Feb-15 21:00N 30°04' W 093°26'2 4.3
2018-Feb-15 20:30N 30°04' W 093°24'2 4.0
2018-Feb-15 20:00N 30°04' W 093°21'2 3.4
2018-Feb-15 19:30N 30°05' W 093°20'2 4.2
2018-Feb-15 19:00N 30°07' W 093°20'3 5.2
2018-Feb-15 18:30N 30°10' W 093°19'2 3.2
2018-Feb-15 18:00N 30°11' W 093°18'0 0.2
2018-Feb-15 17:30N 30°11' W 093°18'0 0.1
2018-Feb-15 16:59N 30°11' W 093°18'0 0.0
2018-Feb-15 16:31N 30°11' W 093°18'0 0.0
2018-Feb-15 16:00N 30°11' W 093°18'0 0.0
2018-Feb-15 15:31N 30°11' W 093°18'0 0.0
2018-Feb-15 15:00N 30°11' W 093°18'0 0.0
2018-Feb-15 14:30N 30°11' W 093°18'0 0.0
2018-Feb-15 14:00N 30°11' W 093°18'0 0.0
2018-Feb-15 13:31N 30°11' W 093°18'0 0.0
2018-Feb-15 12:58N 30°11' W 093°18'0 0.0
2018-Feb-15 12:31N 30°11' W 093°18'0 0.1
2018-Feb-15 12:01N 30°11' W 093°18'0 0.1
2018-Feb-15 11:31N 30°11' W 093°18'0 0.0
2018-Feb-15 11:01N 30°11' W 093°18'0 0.0
2018-Feb-15 10:30N 30°11' W 093°18'0 0.1
2018-Feb-15 10:00N 30°11' W 093°18'0 0.1
2018-Feb-15 09:28N 30°11' W 093°18'0 0.0
2018-Feb-15 09:01N 30°11' W 093°18'0 0.1
2018-Feb-15 08:31N 30°11' W 093°18'0 0.1
2018-Feb-15 08:01N 30°11' W 093°18'0 0.0
2018-Feb-15 07:30N 30°11' W 093°18'0 0.0
2018-Feb-15 07:00N 30°11' W 093°18'0 0.0
2018-Feb-15 06:31N 30°11' W 093°18'0 0.0
2018-Feb-15 06:00N 30°11' W 093°18'0 0.0
2018-Feb-15 05:23N 30°11' W 093°18'0 0.0
2018-Feb-15 04:56N 30°11' W 093°18'0 0.0
2018-Feb-15 04:31N 30°11' W 093°18'0 0.0
2018-Feb-15 04:00N 30°11' W 093°18'0 0.0
2018-Feb-15 03:31N 30°11' W 093°18'0 0.0
2018-Feb-15 03:01N 30°11' W 093°18'0 0.0
2018-Feb-15 02:30N 30°11' W 093°18'0 0.0
2018-Feb-15 02:00N 30°11' W 093°18'0 0.1
2018-Feb-15 01:31N 30°11' W 093°18'0 0.0
2018-Feb-15 01:00N 30°11' W 093°18'0 0.0
2018-Feb-15 00:31N 30°11' W 093°18'0 0.0
2018-Feb-15 00:00N 30°11' W 093°18'0 0.0
2018-Feb-14 23:30N 30°11' W 093°18'1 1.6
2018-Feb-14 23:01N 30°10' W 093°19'0 0.0
2018-Feb-14 22:27N 30°10' W 093°19'0 0.0
2018-Feb-14 21:59N 30°10' W 093°19'0 0.0
2018-Feb-14 21:30N 30°10' W 093°19'0 0.0
2018-Feb-14 21:01N 30°10' W 093°19'0 0.0
2018-Feb-14 20:31N 30°10' W 093°19'0 0.0
2018-Feb-14 20:00N 30°10' W 093°19'0 0.0
2018-Feb-14 19:30N 30°10' W 093°19'0 0.0
2018-Feb-14 19:00N 30°10' W 093°19'0 0.0
2018-Feb-14 18:31N 30°10' W 093°19'0 0.0
2018-Feb-14 18:00N 30°10' W 093°19'0 0.0
2018-Feb-14 17:30N 30°10' W 093°19'0 0.0
2018-Feb-14 17:00N 30°10' W 093°19'0 0.0
2018-Feb-14 16:31N 30°10' W 093°19'0 0.0
2018-Feb-14 16:01N 30°10' W 093°19'0 0.0
2018-Feb-14 15:31N 30°10' W 093°19'0 0.0
2018-Feb-14 15:00N 30°10' W 093°19'0 0.0
2018-Feb-14 14:31N 30°10' W 093°19'0 0.0
2018-Feb-14 14:01N 30°10' W 093°19'0 0.0
2018-Feb-14 13:31N 30°10' W 093°19'0 0.0
2018-Feb-14 13:01N 30°10' W 093°19'0 0.0
2018-Feb-14 12:30N 30°10' W 093°19'0 0.0
2018-Feb-14 12:00N 30°10' W 093°19'0 0.0
2018-Feb-14 11:30N 30°10' W 093°19'0 0.0
2018-Feb-14 11:00N 30°10' W 093°19'0 0.0
2018-Feb-14 10:31N 30°10' W 093°19'0 0.0
2018-Feb-14 10:00N 30°10' W 093°19'0 0.0
2018-Feb-14 09:31N 30°10' W 093°19'0 0.0
2018-Feb-14 09:01N 30°10' W 093°19'0 0.0
2018-Feb-14 08:30N 30°10' W 093°19'0 0.0
2018-Feb-14 08:00N 30°10' W 093°19'0 0.0
2018-Feb-14 07:31N 30°10' W 093°19'0 0.0
2018-Feb-14 07:00N 30°10' W 093°19'0 0.0
2018-Feb-14 06:30N 30°10' W 093°19'0 0.0
2018-Feb-14 06:01N 30°10' W 093°19'0 0.0
2018-Feb-14 05:30N 30°10' W 093°19'0 0.0
2018-Feb-14 05:01N 30°10' W 093°19'0 0.0
2018-Feb-14 04:31N 30°10' W 093°19'0 0.0
2018-Feb-14 04:00N 30°10' W 093°19'0 0.0
2018-Feb-14 03:30N 30°10' W 093°19'0 0.0
2018-Feb-14 03:01N 30°10' W 093°19'0 0.0
2018-Feb-14 02:31N 30°10' W 093°19'0 0.0
2018-Feb-14 02:00N 30°10' W 093°19'0 0.0
2018-Feb-14 01:30N 30°10' W 093°19'0 0.0
2018-Feb-14 01:01N 30°10' W 093°19'0 0.0
2018-Feb-14 00:30N 30°10' W 093°19'0 0.0
2018-Feb-14 00:00N 30°10' W 093°19'0 0.0
2018-Feb-13 23:31N 30°10' W 093°19'0 0.0
2018-Feb-13 23:00N 30°10' W 093°19'0 0.0
2018-Feb-13 22:31N 30°10' W 093°19'0 0.0
2018-Feb-13 21:59N 30°10' W 093°19'0 0.0
2018-Feb-13 21:30N 30°10' W 093°19'0 0.0
2018-Feb-13 21:00N 30°10' W 093°19'0 0.0
2018-Feb-13 20:31N 30°10' W 093°19'0 0.0
2018-Feb-13 20:01N 30°10' W 093°19'0 0.0
2018-Feb-13 19:30N 30°10' W 093°19'0 0.0
2018-Feb-13 19:00N 30°10' W 093°19'0 0.0
2018-Feb-13 18:31N 30°10' W 093°19'0 0.0
2018-Feb-13 18:01N 30°10' W 093°19'0 0.0
2018-Feb-13 17:30N 30°10' W 093°19'0 0.0
2018-Feb-13 17:01N 30°10' W 093°19'0 0.0
2018-Feb-13 16:31N 30°10' W 093°19'0 0.0
2018-Feb-13 15:59N 30°10' W 093°19'0 0.0
2018-Feb-13 15:30N 30°10' W 093°19'0 0.0
2018-Feb-13 15:00N 30°10' W 093°19'0 0.0
2018-Feb-13 14:30N 30°10' W 093°19'0 0.0
2018-Feb-13 14:01N 30°10' W 093°19'0 0.0
2018-Feb-13 13:30N 30°10' W 093°19'0 0.0
2018-Feb-13 13:01N 30°10' W 093°19'0 0.0
2018-Feb-13 12:30N 30°10' W 093°19'0 0.0
2018-Feb-13 12:00N 30°10' W 093°19'0 0.0
2018-Feb-13 11:27N 30°10' W 093°19'0 0.0
2018-Feb-13 11:01N 30°10' W 093°19'0 0.0
2018-Feb-13 10:30N 30°10' W 093°19'0 0.0
2018-Feb-13 10:01N 30°10' W 093°19'0 0.0
2018-Feb-13 09:31N 30°10' W 093°19'0 0.0
2018-Feb-13 08:59N 30°10' W 093°19'0 0.0
2018-Feb-13 08:30N 30°10' W 093°19'0 0.0
2018-Feb-13 07:59N 30°10' W 093°19'0 0.0
2018-Feb-13 07:28N 30°10' W 093°19'0 0.0
2018-Feb-13 07:01N 30°10' W 093°19'0 0.0
2018-Feb-13 06:31N 30°10' W 093°19'0 0.0
2018-Feb-13 06:01N 30°10' W 093°19'0 0.3
2018-Feb-13 05:29N 30°10' W 093°19'0 0.1
2018-Feb-13 05:00N 30°10' W 093°19'0 1.0
2018-Feb-13 04:30N 30°11' W 093°19'2 4.8
2018-Feb-13 04:01N 30°09' W 093°20'3 5.8
2018-Feb-13 03:31N 30°06' W 093°20'2 4.8
2018-Feb-13 03:00N 30°04' W 093°21'3 5.1
2018-Feb-13 02:31N 30°04' W 093°24'3 5.2
2018-Feb-13 02:01N 30°04' W 093°27'2 4.1
2018-Feb-13 01:29N 30°04' W 093°30'2 4.6
2018-Feb-13 01:00N 30°04' W 093°32'3 3.4
2018-Feb-13 00:12N 30°04' W 093°35'1 5.0
2018-Feb-12 23:58N 30°04' W 093°37'2 3.9
2018-Feb-12 23:30N 30°04' W 093°39'3 5.3
2018-Feb-12 23:00N 30°03' W 093°42'2 3.4
2018-Feb-12 22:28N 30°03' W 093°44'2 3.6
2018-Feb-12 21:59N 30°01' W 093°45'3 5.5
2018-Feb-12 21:30N 29°60' W 093°47'3 6.1
2018-Feb-12 21:00N 29°58' W 093°50'2 4.7
2018-Feb-12 20:31N 29°57' W 093°52'3 6.8
2018-Feb-12 20:00N 29°54' W 093°54'3 6.6
2018-Feb-12 19:31N 29°51' W 093°57'3 5.4
2018-Feb-12 19:00N 29°49' W 093°59'0 0.7
2018-Feb-12 18:31N 29°49' W 093°59'2 3.1
2018-Feb-12 18:00N 29°48' W 094°00'3 5.1
2018-Feb-12 17:30N 29°46' W 094°02'3 5.1
2018-Feb-12 17:00N 29°45' W 094°05'3 5.2
2018-Feb-12 16:30N 29°43' W 094°07'3 5.1
2018-Feb-12 16:00N 29°42' W 094°09'2 3.5
2018-Feb-12 15:28N 29°41' W 094°11'2 4.6
2018-Feb-12 15:00N 29°40' W 094°14'2 4.7
2018-Feb-12 14:30N 29°39' W 094°16'2 4.3
2018-Feb-12 13:59N 29°38' W 094°18'0 0.4
2018-Feb-12 13:07N 29°38' W 094°19'0 0.0
2018-Feb-12 12:58N 29°38' W 094°19'0 0.0
2018-Feb-12 12:14N 29°38' W 094°19'0 0.0
2018-Feb-12 11:54N 29°38' W 094°19'0 0.0
2018-Feb-12 11:30N 29°38' W 094°19'0 0.0
2018-Feb-12 11:00N 29°38' W 094°19'0 0.0
2018-Feb-12 10:30N 29°38' W 094°19'0 0.0
2018-Feb-12 10:00N 29°38' W 094°19'0 0.0
2018-Feb-12 09:29N 29°38' W 094°19'0 0.0
2018-Feb-12 08:58N 29°38' W 094°19'0 0.0
2018-Feb-12 08:05N 29°38' W 094°19'0 0.1
2018-Feb-12 07:59N 29°38' W 094°19'0 0.0
2018-Feb-12 07:30N 29°38' W 094°19'0 0.0
2018-Feb-12 06:47N 29°38' W 094°19'0 0.0
2018-Feb-12 06:26N 29°38' W 094°19'0 0.0
2018-Feb-12 05:56N 29°38' W 094°19'0 0.0
2018-Feb-12 05:25N 29°38' W 094°19'0 0.0
2018-Feb-12 04:57N 29°38' W 094°19'0 0.0
2018-Feb-12 03:47N 29°38' W 094°19'0 0.0
2018-Feb-12 03:30N 29°38' W 094°19'0 0.0
2018-Feb-12 02:59N 29°38' W 094°19'0 0.0
2018-Feb-12 02:30N 29°38' W 094°19'0 0.0
2018-Feb-12 01:47N 29°38' W 094°19'0 0.0
2018-Feb-12 01:29N 29°38' W 094°19'0 0.0
2018-Feb-12 01:00N 29°38' W 094°19'0 0.0
2018-Feb-12 00:29N 29°38' W 094°19'0 0.0
2018-Feb-11 23:59N 29°38' W 094°19'0 0.0
2018-Feb-11 23:30N 29°38' W 094°19'0 0.0
2018-Feb-11 22:54N 29°38' W 094°19'0 0.0
2018-Feb-11 22:25N 29°38' W 094°19'0 0.0
2018-Feb-11 21:56N 29°38' W 094°19'0 0.0
2018-Feb-11 21:29N 29°38' W 094°19'0 0.0
2018-Feb-11 20:47N 29°38' W 094°19'0 0.0
2018-Feb-11 20:23N 29°38' W 094°19'0 0.0
2018-Feb-11 20:00N 29°38' W 094°19'0 0.0
2018-Feb-11 19:29N 29°38' W 094°19'0 0.0
2018-Feb-11 18:53N 29°38' W 094°19'0 0.0
2018-Feb-11 18:29N 29°38' W 094°19'0 0.0
2018-Feb-11 18:00N 29°38' W 094°19'0 0.0
2018-Feb-11 17:29N 29°38' W 094°19'1 1.3
2018-Feb-11 16:51N 29°37' W 094°20'3 3.7
2018-Feb-11 16:08N 29°36' W 094°22'0 0.0
2018-Feb-11 15:59N 29°36' W 094°22'0 0.0
2018-Feb-11 15:28N 29°36' W 094°22'0 0.1
2018-Feb-11 14:59N 29°36' W 094°22'2 2.9
2018-Feb-11 14:26N 29°36' W 094°24'2 4.0
2018-Feb-11 14:00N 29°34' W 094°25'3 4.4
2018-Feb-11 13:22N 29°33' W 094°28'2 4.6
2018-Feb-11 13:00N 29°32' W 094°29'3 2.8
2018-Feb-11 11:52N 29°30' W 094°32'0 0.0
2018-Feb-11 11:30N 29°30' W 094°32'0 0.0
2018-Feb-11 10:55N 29°30' W 094°32'0 0.0
2018-Feb-11 10:30N 29°30' W 094°32'0 0.0
2018-Feb-11 10:00N 29°30' W 094°32'17 1.3
2018-Feb-10 21:05N 29°30' W 094°52'0 6.0
2018-Feb-10 21:00N 29°30' W 094°53'3 6.1
2018-Feb-10 20:30N 29°33' W 094°54'3 6.6
2018-Feb-10 20:00N 29°36' W 094°57'3 6.9
2018-Feb-10 19:30N 29°39' W 094°58'4 6.9
2018-Feb-10 18:59N 29°42' W 094°60'3 5.3
2018-Feb-10 18:23N 29°44' W 095°03'6 5.3
2018-Feb-10 17:20N 29°44' W 095°09'  
2018-Feb-08 13:00N 29°41' W 094°09'6 2.4
2018-Feb-08 10:30N 29°45' W 094°04'  
Track history (hours):
 
Tides and Currents Weather Stations Pressure Air Temp Water Temp Dewpoint Dewpoint Depression Visibility Wind Speed Wind Dir Waves Ship Positions

Carol M. Ott

Owner: BLESSEY MARINE SERVICES INC, HARAHAN, LA. More information available from US FCC via Universal Licensing System and Coast Guard Vessel Documentation Center.

Last reported at 2018-Feb-18 02:47 UTC. Time now 2018-Feb-18 04:55 UTC.
Position N 29°30' W 094°35'.

Length 23 m; draft 2.4 m.

Type: Towing. MMSI: 366934050.

Date/timePositionNaut miles runAvg speedWind from/ knotsBaromVisibWave heightAir tempDewpointWater temp
2018-Feb-18 02:47N 29°30' W 094°35'0 0.0
2018-Feb-18 02:30N 29°30' W 094°35'0 0.0
2018-Feb-18 01:48N 29°30' W 094°35'0 0.0
2018-Feb-18 01:30N 29°30' W 094°35'0 0.0
2018-Feb-18 01:00N 29°30' W 094°35'0 0.0
2018-Feb-18 00:29N 29°30' W 094°35'3 1.9
2018-Feb-17 22:42N 29°31' W 094°31'1 4.4
2018-Feb-17 22:28N 29°31' W 094°30'1 2.0
2018-Feb-17 21:46N 29°32' W 094°29'5 2.9
2018-Feb-17 20:06N 29°36' W 094°25'1 4.6
2018-Feb-17 19:59N 29°36' W 094°24'1 3.0
2018-Feb-17 19:30N 29°36' W 094°23'0 0.3
2018-Feb-17 18:55N 29°36' W 094°22'0 0.1
2018-Feb-17 18:24N 29°36' W 094°22'0 0.2
2018-Feb-17 17:55N 29°36' W 094°22'0 0.3
2018-Feb-17 17:30N 29°36' W 094°22'0 0.1
2018-Feb-17 17:00N 29°36' W 094°22'0 0.0
2018-Feb-17 16:30N 29°36' W 094°22'0 0.1
2018-Feb-17 16:00N 29°36' W 094°22'1 1.2
2018-Feb-17 15:29N 29°37' W 094°21'0 0.0
2018-Feb-17 15:00N 29°37' W 094°21'0 0.0
2018-Feb-17 14:30N 29°37' W 094°22'0 0.0
2018-Feb-17 13:59N 29°37' W 094°22'0 0.0
2018-Feb-17 13:30N 29°37' W 094°22'0 0.0
2018-Feb-17 13:00N 29°37' W 094°22'0 0.0
2018-Feb-17 12:30N 29°37' W 094°21'0 0.0
2018-Feb-17 11:58N 29°37' W 094°21'0 0.0
2018-Feb-17 11:30N 29°37' W 094°21'0 0.0
2018-Feb-17 11:00N 29°37' W 094°21'0 0.0
2018-Feb-17 10:30N 29°37' W 094°21'0 0.0
2018-Feb-17 10:00N 29°37' W 094°21'0 0.0
2018-Feb-17 09:30N 29°37' W 094°21'0 0.0
2018-Feb-17 08:59N 29°37' W 094°21'0 0.0
2018-Feb-17 08:29N 29°37' W 094°21'0 0.0
2018-Feb-17 08:00N 29°37' W 094°21'0 0.0
2018-Feb-17 07:24N 29°37' W 094°21'0 0.0
2018-Feb-17 06:59N 29°37' W 094°21'0 0.0
2018-Feb-17 06:30N 29°37' W 094°21'0 0.0
2018-Feb-17 06:00N 29°37' W 094°21'0 0.0
2018-Feb-17 05:31N 29°37' W 094°21'0 0.0
2018-Feb-17 04:58N 29°37' W 094°21'0 0.0
2018-Feb-17 04:30N 29°37' W 094°21'0 0.0
2018-Feb-17 03:46N 29°37' W 094°21'0 0.0
2018-Feb-17 03:22N 29°37' W 094°21'0 0.0
2018-Feb-17 03:00N 29°37' W 094°21'0 0.0
2018-Feb-17 02:30N 29°37' W 094°21'0 0.0
2018-Feb-17 02:00N 29°37' W 094°21'0 0.0
2018-Feb-17 01:30N 29°37' W 094°21'0 0.0
2018-Feb-17 01:00N 29°37' W 094°22'0 0.0
2018-Feb-17 00:30N 29°37' W 094°22'1 1.4
2018-Feb-16 23:59N 29°37' W 094°21'2 3.7
2018-Feb-16 23:30N 29°38' W 094°19'2 4.7
2018-Feb-16 23:00N 29°39' W 094°17'3 5.1
2018-Feb-16 22:30N 29°40' W 094°14'3 5.1
2018-Feb-16 22:00N 29°41' W 094°11'3 4.8
2018-Feb-16 21:29N 29°42' W 094°09'2 5.1
2018-Feb-16 21:00N 29°44' W 094°06'2 4.4
2018-Feb-16 20:30N 29°45' W 094°04'2 5.0
2018-Feb-16 20:00N 29°46' W 094°02'2 4.8
2018-Feb-16 19:30N 29°48' W 094°00'2 4.6
2018-Feb-16 19:00N 29°49' W 093°58'3 6.0
2018-Feb-16 18:30N 29°52' W 093°56'4 7.4
2018-Feb-16 18:00N 29°55' W 093°53'3 6.1
2018-Feb-16 17:30N 29°57' W 093°52'2 3.6
2018-Feb-16 17:00N 29°59' W 093°50'1 2.9
2018-Feb-16 16:30N 29°59' W 093°48'2 3.7
2018-Feb-16 16:00N 29°60' W 093°46'1 2.4
2018-Feb-16 15:30N 30°01' W 093°46'0 0.1
2018-Feb-16 15:00N 30°01' W 093°46'0 0.0
2018-Feb-16 14:30N 30°01' W 093°46'0 0.0
2018-Feb-16 13:59N 30°01' W 093°46'0 0.0
2018-Feb-16 13:29N 30°01' W 093°46'0 0.0
2018-Feb-16 13:00N 30°01' W 093°46'0 0.0
2018-Feb-16 12:30N 30°01' W 093°46'0 0.0
2018-Feb-16 12:00N 30°01' W 093°46'0 0.0
2018-Feb-16 11:28N 30°01' W 093°46'0 0.0
2018-Feb-16 11:00N 30°01' W 093°46'0 0.0
2018-Feb-16 10:30N 30°01' W 093°46'0 0.0
2018-Feb-16 10:00N 30°01' W 093°46'0 0.0
2018-Feb-16 09:30N 30°01' W 093°46'0 0.0
2018-Feb-16 09:00N 30°01' W 093°46'0 0.0
2018-Feb-16 08:30N 30°01' W 093°46'0 0.0
2018-Feb-16 08:00N 30°01' W 093°46'0 0.0
2018-Feb-16 07:30N 30°01' W 093°46'0 0.0
2018-Feb-16 07:00N 30°01' W 093°46'0 0.0
2018-Feb-16 06:30N 30°01' W 093°46'0 0.0
2018-Feb-16 06:00N 30°01' W 093°46'0 0.0
2018-Feb-16 05:30N 30°01' W 093°46'0 0.0
2018-Feb-16 05:00N 30°01' W 093°46'0 0.0
2018-Feb-16 04:30N 30°01' W 093°46'0 0.0
2018-Feb-16 04:00N 30°01' W 093°46'0 0.0
2018-Feb-16 03:30N 30°01' W 093°46'0 0.0
2018-Feb-16 03:00N 30°01' W 093°46'0 0.0
2018-Feb-16 02:30N 30°01' W 093°46'0 0.0
2018-Feb-16 02:00N 30°01' W 093°46'0 0.0
2018-Feb-16 01:30N 30°01' W 093°46'1 1.1
2018-Feb-16 01:00N 30°01' W 093°45'2 4.7
2018-Feb-16 00:30N 30°03' W 093°44'2 4.4
2018-Feb-16 00:00N 30°04' W 093°41'2 4.7
2018-Feb-15 23:30N 30°04' W 093°38'2 4.5
2018-Feb-15 22:59N 30°04' W 093°36'2 4.2
2018-Feb-15 22:30N 30°04' W 093°33'2 4.3
2018-Feb-15 21:59N 30°04' W 093°31'2 4.1
2018-Feb-15 21:30N 30°04' W 093°28'2 4.3
2018-Feb-15 21:00N 30°04' W 093°26'2 4.3
2018-Feb-15 20:30N 30°04' W 093°24'2 4.0
2018-Feb-15 20:00N 30°04' W 093°21'2 3.4
2018-Feb-15 19:30N 30°05' W 093°20'2 4.2
2018-Feb-15 19:00N 30°07' W 093°20'3 5.2
2018-Feb-15 18:30N 30°10' W 093°19'2 3.2
2018-Feb-15 18:00N 30°11' W 093°18'0 0.2
2018-Feb-15 17:30N 30°11' W 093°18'0 0.1
2018-Feb-15 16:59N 30°11' W 093°18'0 0.0
2018-Feb-15 16:31N 30°11' W 093°18'0 0.0
2018-Feb-15 16:00N 30°11' W 093°18'0 0.0
2018-Feb-15 15:31N 30°11' W 093°18'0 0.0
2018-Feb-15 15:00N 30°11' W 093°18'0 0.0
2018-Feb-15 14:30N 30°11' W 093°18'0 0.0
2018-Feb-15 14:00N 30°11' W 093°18'0 0.0
2018-Feb-15 13:31N 30°11' W 093°18'0 0.0
2018-Feb-15 12:58N 30°11' W 093°18'0 0.0
2018-Feb-15 12:31N 30°11' W 093°18'0 0.1
2018-Feb-15 12:01N 30°11' W 093°18'0 0.1
2018-Feb-15 11:31N 30°11' W 093°18'0 0.0
2018-Feb-15 11:01N 30°11' W 093°18'0 0.0
2018-Feb-15 10:30N 30°11' W 093°18'0 0.1
2018-Feb-15 10:00N 30°11' W 093°18'0 0.1
2018-Feb-15 09:28N 30°11' W 093°18'0 0.0
2018-Feb-15 09:01N 30°11' W 093°18'0 0.1
2018-Feb-15 08:31N 30°11' W 093°18'0 0.1
2018-Feb-15 08:01N 30°11' W 093°18'0 0.0
2018-Feb-15 07:30N 30°11' W 093°18'0 0.0
2018-Feb-15 07:00N 30°11' W 093°18'0 0.0
2018-Feb-15 06:31N 30°11' W 093°18'0 0.0
2018-Feb-15 06:00N 30°11' W 093°18'0 0.0
2018-Feb-15 05:23N 30°11' W 093°18'0 0.0
2018-Feb-15 04:56N 30°11' W 093°18'0 0.0
2018-Feb-15 04:31N 30°11' W 093°18'0 0.0
2018-Feb-15 04:00N 30°11' W 093°18'0 0.0
2018-Feb-15 03:31N 30°11' W 093°18'0 0.0
2018-Feb-15 03:01N 30°11' W 093°18'0 0.0
2018-Feb-15 02:30N 30°11' W 093°18'0 0.0
2018-Feb-15 02:00N 30°11' W 093°18'0 0.1
2018-Feb-15 01:31N 30°11' W 093°18'0 0.0
2018-Feb-15 01:00N 30°11' W 093°18'0 0.0
2018-Feb-15 00:31N 30°11' W 093°18'0 0.0
2018-Feb-15 00:00N 30°11' W 093°18'0 0.0
2018-Feb-14 23:30N 30°11' W 093°18'1 1.6
2018-Feb-14 23:01N 30°10' W 093°19'0 0.0
2018-Feb-14 22:27N 30°10' W 093°19'0 0.0
2018-Feb-14 21:59N 30°10' W 093°19'0 0.0
2018-Feb-14 21:30N 30°10' W 093°19'0 0.0
2018-Feb-14 21:01N 30°10' W 093°19'0 0.0
2018-Feb-14 20:31N 30°10' W 093°19'0 0.0
2018-Feb-14 20:00N 30°10' W 093°19'0 0.0
2018-Feb-14 19:30N 30°10' W 093°19'0 0.0
2018-Feb-14 19:00N 30°10' W 093°19'0 0.0
2018-Feb-14 18:31N 30°10' W 093°19'0 0.0
2018-Feb-14 18:00N 30°10' W 093°19'0 0.0
2018-Feb-14 17:30N 30°10' W 093°19'0 0.0
2018-Feb-14 17:00N 30°10' W 093°19'0 0.0
2018-Feb-14 16:31N 30°10' W 093°19'0 0.0
2018-Feb-14 16:01N 30°10' W 093°19'0 0.0
2018-Feb-14 15:31N 30°10' W 093°19'0 0.0
2018-Feb-14 15:00N 30°10' W 093°19'0 0.0
2018-Feb-14 14:31N 30°10' W 093°19'0 0.0
2018-Feb-14 14:01N 30°10' W 093°19'0 0.0
2018-Feb-14 13:31N 30°10' W 093°19'0 0.0
2018-Feb-14 13:01N 30°10' W 093°19'0 0.0
2018-Feb-14 12:30N 30°10' W 093°19'0 0.0
2018-Feb-14 12:00N 30°10' W 093°19'0 0.0
2018-Feb-14 11:30N 30°10' W 093°19'0 0.0
2018-Feb-14 11:00N 30°10' W 093°19'0 0.0
2018-Feb-14 10:31N 30°10' W 093°19'0 0.0
2018-Feb-14 10:00N 30°10' W 093°19'0 0.0
2018-Feb-14 09:31N 30°10' W 093°19'0 0.0
2018-Feb-14 09:01N 30°10' W 093°19'0 0.0
2018-Feb-14 08:30N 30°10' W 093°19'0 0.0
2018-Feb-14 08:00N 30°10' W 093°19'0 0.0
2018-Feb-14 07:31N 30°10' W 093°19'0 0.0
2018-Feb-14 07:00N 30°10' W 093°19'0 0.0
2018-Feb-14 06:30N 30°10' W 093°19'0 0.0
2018-Feb-14 06:01N 30°10' W 093°19'0 0.0
2018-Feb-14 05:30N 30°10' W 093°19'0 0.0
2018-Feb-14 05:01N 30°10' W 093°19'0 0.0
2018-Feb-14 04:31N 30°10' W 093°19'0 0.0
2018-Feb-14 04:00N 30°10' W 093°19'0 0.0
2018-Feb-14 03:30N 30°10' W 093°19'0 0.0
2018-Feb-14 03:01N 30°10' W 093°19'0 0.0
2018-Feb-14 02:31N 30°10' W 093°19'0 0.0
2018-Feb-14 02:00N 30°10' W 093°19'0 0.0
2018-Feb-14 01:30N 30°10' W 093°19'0 0.0
2018-Feb-14 01:01N 30°10' W 093°19'0 0.0
2018-Feb-14 00:30N 30°10' W 093°19'0 0.0
2018-Feb-14 00:00N 30°10' W 093°19'0 0.0
2018-Feb-13 23:31N 30°10' W 093°19'0 0.0
2018-Feb-13 23:00N 30°10' W 093°19'0 0.0
2018-Feb-13 22:31N 30°10' W 093°19'0 0.0
2018-Feb-13 21:59N 30°10' W 093°19'0 0.0
2018-Feb-13 21:30N 30°10' W 093°19'0 0.0
2018-Feb-13 21:00N 30°10' W 093°19'0 0.0
2018-Feb-13 20:31N 30°10' W 093°19'0 0.0
2018-Feb-13 20:01N 30°10' W 093°19'0 0.0
2018-Feb-13 19:30N 30°10' W 093°19'0 0.0
2018-Feb-13 19:00N 30°10' W 093°19'0 0.0
2018-Feb-13 18:31N 30°10' W 093°19'0 0.0
2018-Feb-13 18:01N 30°10' W 093°19'0 0.0
2018-Feb-13 17:30N 30°10' W 093°19'0 0.0
2018-Feb-13 17:01N 30°10' W 093°19'0 0.0
2018-Feb-13 16:31N 30°10' W 093°19'0 0.0
2018-Feb-13 15:59N 30°10' W 093°19'0 0.0
2018-Feb-13 15:30N 30°10' W 093°19'0 0.0
2018-Feb-13 15:00N 30°10' W 093°19'0 0.0
2018-Feb-13 14:30N 30°10' W 093°19'0 0.0
2018-Feb-13 14:01N 30°10' W 093°19'0 0.0
2018-Feb-13 13:30N 30°10' W 093°19'0 0.0
2018-Feb-13 13:01N 30°10' W 093°19'0 0.0
2018-Feb-13 12:30N 30°10' W 093°19'0 0.0
2018-Feb-13 12:00N 30°10' W 093°19'0 0.0
2018-Feb-13 11:27N 30°10' W 093°19'0 0.0
2018-Feb-13 11:01N 30°10' W 093°19'0 0.0
2018-Feb-13 10:30N 30°10' W 093°19'0 0.0
2018-Feb-13 10:01N 30°10' W 093°19'0 0.0
2018-Feb-13 09:31N 30°10' W 093°19'0 0.0
2018-Feb-13 08:59N 30°10' W 093°19'0 0.0
2018-Feb-13 08:30N 30°10' W 093°19'0 0.0
2018-Feb-13 07:59N 30°10' W 093°19'0 0.0
2018-Feb-13 07:28N 30°10' W 093°19'0 0.0
2018-Feb-13 07:01N 30°10' W 093°19'0 0.0
2018-Feb-13 06:31N 30°10' W 093°19'0 0.0
2018-Feb-13 06:01N 30°10' W 093°19'0 0.3
2018-Feb-13 05:29N 30°10' W 093°19'0 0.1
2018-Feb-13 05:00N 30°10' W 093°19'0 1.0
2018-Feb-13 04:30N 30°11' W 093°19'2 4.8
2018-Feb-13 04:01N 30°09' W 093°20'3 5.8
2018-Feb-13 03:31N 30°06' W 093°20'2 4.8
2018-Feb-13 03:00N 30°04' W 093°21'3 5.1
2018-Feb-13 02:31N 30°04' W 093°24'3 5.2
2018-Feb-13 02:01N 30°04' W 093°27'2 4.1
2018-Feb-13 01:29N 30°04' W 093°30'2 4.6
2018-Feb-13 01:00N 30°04' W 093°32'3 3.4
2018-Feb-13 00:12N 30°04' W 093°35'1 5.0
2018-Feb-12 23:58N 30°04' W 093°37'2 3.9
2018-Feb-12 23:30N 30°04' W 093°39'3 5.3
2018-Feb-12 23:00N 30°03' W 093°42'2 3.4
2018-Feb-12 22:28N 30°03' W 093°44'2 3.6
2018-Feb-12 21:59N 30°01' W 093°45'3 5.5
2018-Feb-12 21:30N 29°60' W 093°47'3 6.1
2018-Feb-12 21:00N 29°58' W 093°50'2 4.7
2018-Feb-12 20:31N 29°57' W 093°52'3 6.8
2018-Feb-12 20:00N 29°54' W 093°54'3 6.6
2018-Feb-12 19:31N 29°51' W 093°57'3 5.4
2018-Feb-12 19:00N 29°49' W 093°59'0 0.7
2018-Feb-12 18:31N 29°49' W 093°59'2 3.1
2018-Feb-12 18:00N 29°48' W 094°00'3 5.1
2018-Feb-12 17:30N 29°46' W 094°02'3 5.1
2018-Feb-12 17:00N 29°45' W 094°05'3 5.2
2018-Feb-12 16:30N 29°43' W 094°07'3 5.1
2018-Feb-12 16:00N 29°42' W 094°09'2 3.5
2018-Feb-12 15:28N 29°41' W 094°11'2 4.6
2018-Feb-12 15:00N 29°40' W 094°14'2 4.7
2018-Feb-12 14:30N 29°39' W 094°16'2 4.3
2018-Feb-12 13:59N 29°38' W 094°18'0 0.4
2018-Feb-12 13:07N 29°38' W 094°19'0 0.0
2018-Feb-12 12:58N 29°38' W 094°19'0 0.0
2018-Feb-12 12:14N 29°38' W 094°19'0 0.0
2018-Feb-12 11:54N 29°38' W 094°19'0 0.0
2018-Feb-12 11:30N 29°38' W 094°19'0 0.0
2018-Feb-12 11:00N 29°38' W 094°19'0 0.0
2018-Feb-12 10:30N 29°38' W 094°19'0 0.0
2018-Feb-12 10:00N 29°38' W 094°19'0 0.0
2018-Feb-12 09:29N 29°38' W 094°19'0 0.0
2018-Feb-12 08:58N 29°38' W 094°19'0 0.0
2018-Feb-12 08:05N 29°38' W 094°19'0 0.1
2018-Feb-12 07:59N 29°38' W 094°19'0 0.0
2018-Feb-12 07:30N 29°38' W 094°19'0 0.0
2018-Feb-12 06:47N 29°38' W 094°19'0 0.0
2018-Feb-12 06:26N 29°38' W 094°19'0 0.0
2018-Feb-12 05:56N 29°38' W 094°19'0 0.0
2018-Feb-12 05:25N 29°38' W 094°19'0 0.0
2018-Feb-12 04:57N 29°38' W 094°19'0 0.0
2018-Feb-12 03:47N 29°38' W 094°19'0 0.0
2018-Feb-12 03:30N 29°38' W 094°19'0 0.0
2018-Feb-12 02:59N 29°38' W 094°19'0 0.0
2018-Feb-12 02:30N 29°38' W 094°19'0 0.0
2018-Feb-12 01:47N 29°38' W 094°19'0 0.0
2018-Feb-12 01:29N 29°38' W 094°19'0 0.0
2018-Feb-12 01:00N 29°38' W 094°19'0 0.0
2018-Feb-12 00:29N 29°38' W 094°19'0 0.0
2018-Feb-11 23:59N 29°38' W 094°19'0 0.0
2018-Feb-11 23:30N 29°38' W 094°19'0 0.0
2018-Feb-11 22:54N 29°38' W 094°19'0 0.0
2018-Feb-11 22:25N 29°38' W 094°19'0 0.0
2018-Feb-11 21:56N 29°38' W 094°19'0 0.0
2018-Feb-11 21:29N 29°38' W 094°19'0 0.0
2018-Feb-11 20:47N 29°38' W 094°19'0 0.0
2018-Feb-11 20:23N 29°38' W 094°19'0 0.0
2018-Feb-11 20:00N 29°38' W 094°19'0 0.0
2018-Feb-11 19:29N 29°38' W 094°19'0 0.0
2018-Feb-11 18:53N 29°38' W 094°19'0 0.0
2018-Feb-11 18:29N 29°38' W 094°19'0 0.0
2018-Feb-11 18:00N 29°38' W 094°19'0 0.0
2018-Feb-11 17:29N 29°38' W 094°19'1 1.3
2018-Feb-11 16:51N 29°37' W 094°20'3 3.7
2018-Feb-11 16:08N 29°36' W 094°22'0 0.0
2018-Feb-11 15:59N 29°36' W 094°22'0 0.0
2018-Feb-11 15:28N 29°36' W 094°22'0 0.1
2018-Feb-11 14:59N 29°36' W 094°22'2 2.9
2018-Feb-11 14:26N 29°36' W 094°24'2 4.0
2018-Feb-11 14:00N 29°34' W 094°25'3 4.4
2018-Feb-11 13:22N 29°33' W 094°28'2 4.6
2018-Feb-11 13:00N 29°32' W 094°29'3 2.8
2018-Feb-11 11:52N 29°30' W 094°32'0 0.0
2018-Feb-11 11:30N 29°30' W 094°32'0 0.0
2018-Feb-11 10:55N 29°30' W 094°32'0 0.0
2018-Feb-11 10:30N 29°30' W 094°32'0 0.0
2018-Feb-11 10:00N 29°30' W 094°32'17 1.3
2018-Feb-10 21:05N 29°30' W 094°52'0 6.0
2018-Feb-10 21:00N 29°30' W 094°53'3 6.1
2018-Feb-10 20:30N 29°33' W 094°54'3 6.6
2018-Feb-10 20:00N 29°36' W 094°57'3 6.9
2018-Feb-10 19:30N 29°39' W 094°58'4 6.9
2018-Feb-10 18:59N 29°42' W 094°60'3 5.3
2018-Feb-10 18:23N 29°44' W 095°03'6 5.3
2018-Feb-10 17:20N 29°44' W 095°09'  
2018-Feb-08 13:00N 29°41' W 094°09'6 2.4
2018-Feb-08 10:30N 29°45' W 094°04'  

Dump ship's entire track history